Time,TemperatureF,DewpointF,PressureIn,WindDirection,WindDirectionDegrees,WindSpeedMPH,WindSpeedGustMPH,Humidity,HourlyPrecipIn,Conditions,Clouds,dailyrainin,SoftwareType,DateUTC
2013-02-06 00:05:00,44.3,43.0,30.08,SE,129,0.0,1.0,95,0.00,,,0.00,Wunderground v.1.15,2013-02-05 10:05:00,
2013-02-06 00:15:00,44.0,42.7,30.08,SSE,147,1.0,1.0,95,0.00,,,0.00,Wunderground v.1.15,2013-02-05 10:15:00,
2013-02-06 00:25:00,43.9,42.6,30.07,ESE,115,1.0,1.0,95,0.00,,,0.00,Wunderground v.1.15,2013-02-05 10:25:00,
2013-02-06 00:30:00,43.8,42.5,30.07,ESE,108,1.0,1.0,95,0.00,,,0.00,Wunderground v.1.15,2013-02-05 10:30:00,
2013-02-06 00:35:00,43.7,42.4,30.07,ESE,108,1.0,1.0,95,0.00,,,0.00,Wunderground v.1.15,2013-02-05 10:35:00,
2013-02-06 00:45:00,43.4,42.1,30.07,ESE,123,0.0,1.0,95,0.00,,,0.00,Wunderground v.1.15,2013-02-05 10:45:00,
2013-02-06 00:55:00,43.5,42.4,30.07,SE,131,2.0,2.0,96,0.00,,,0.00,Wunderground v.1.15,2013-02-05 10:55:00,
2013-02-06 01:00:00,43.5,42.4,30.06,East,96,2.0,2.0,96,0.00,,,0.00,Wunderground v.1.15,2013-02-05 11:00:00,
2013-02-06 01:05:00,43.4,42.1,30.07,SE,132,1.0,2.0,95,0.00,,,0.00,Wunderground v.1.15,2013-02-05 11:05:00,
2013-02-06 01:15:00,43.2,41.9,30.06,SE,136,1.0,2.0,95,0.00,,,0.00,Wunderground v.1.15,2013-02-05 11:15:00,
2013-02-06 01:20:00,43.1,41.8,30.06,ESE,123,1.0,2.0,95,0.00,,,0.00,Wunderground v.1.15,2013-02-05 11:20:00,
2013-02-06 01:30:00,43.1,42.0,30.06,SE,131,2.0,2.0,96,0.00,,,0.00,Wunderground v.1.15,2013-02-05 11:30:00,
2013-02-06 01:35:00,43.1,42.0,30.06,SSE,148,2.0,4.0,96,0.00,,,0.00,Wunderground v.1.15,2013-02-05 11:35:00,
2013-02-06 01:45:00,43.0,41.9,30.07,SE,124,2.0,2.0,96,0.00,,,0.00,Wunderground v.1.15,2013-02-05 11:45:00,
2013-02-06 01:50:00,42.9,41.8,30.07,SE,131,2.0,3.0,96,0.00,,,0.00,Wunderground v.1.15,2013-02-05 11:50:00,
2013-02-06 02:00:00,42.9,41.8,30.06,ESE,114,3.0,3.0,96,0.00,,,0.00,Wunderground v.1.15,2013-02-05 12:00:00,
2013-02-06 02:05:00,42.9,41.8,30.06,ESE,115,3.0,5.0,96,0.00,,,0.00,Wunderground v.1.15,2013-02-05 12:05:00,
2013-02-06 02:15:00,42.8,41.7,30.05,East,96,3.0,3.0,96,0.00,,,0.00,Wunderground v.1.15,2013-02-05 12:15:00,
2013-02-06 02:25:00,42.8,41.7,30.05,East,93,3.0,7.0,96,0.00,,,0.00,Wunderground v.1.15,2013-02-05 12:25:00,
2013-02-06 02:30:00,42.8,41.7,30.05,SE,124,3.0,5.0,96,0.00,,,0.00,Wunderground v.1.15,2013-02-05 12:30:00,
2013-02-06 02:35:00,42.8,41.7,30.05,SSE,148,3.0,5.0,96,0.00,,,0.00,Wunderground v.1.15,2013-02-05 12:35:00,
2013-02-06 02:45:00,42.7,41.6,30.05,SSE,153,3.0,3.0,96,0.00,,,0.00,Wunderground v.1.15,2013-02-05 12:45:00,
2013-02-06 02:55:00,42.5,41.4,30.05,SE,129,3.0,4.0,96,0.00,,,0.00,Wunderground v.1.15,2013-02-05 12:55:00,
2013-02-06 03:00:00,42.4,41.3,30.05,SE,136,3.0,3.0,96,0.00,,,0.00,Wunderground v.1.15,2013-02-05 13:00:00,
2013-02-06 03:05:00,42.3,41.2,30.06,SSE,153,3.0,3.0,96,0.00,,,0.00,Wunderground v.1.15,2013-02-05 13:05:00,
2013-02-06 03:20:00,42.0,40.9,30.05,ESE,113,2.0,2.0,96,0.00,,,0.00,Wunderground v.1.15,2013-02-05 13:20:00,
2013-02-06 03:25:00,41.9,40.8,30.05,South,172,2.0,2.0,96,0.00,,,0.00,Wunderground v.1.15,2013-02-05 13:25:00,
2013-02-06 03:35:00,41.7,40.6,30.05,SE,142,1.0,3.0,96,0.00,,,0.00,Wunderground v.1.15,2013-02-05 13:35:00,
2013-02-06 03:40:00,41.6,40.5,30.05,SE,132,2.0,2.0,96,0.00,,,0.00,Wunderground v.1.15,2013-02-05 13:40:00,
2013-02-06 03:50:00,41.4,40.3,30.05,SE,136,1.0,2.0,96,0.00,,,0.00,Wunderground v.1.15,2013-02-05 13:50:00,
2013-02-06 03:55:00,41.4,40.3,30.05,East,100,2.0,2.0,96,0.00,,,0.00,Wunderground v.1.15,2013-02-05 13:55:00,
2013-02-06 04:05:00,41.3,40.2,30.05,ESE,113,2.0,2.0,96,0.00,,,0.00,Wunderground v.1.15,2013-02-05 14:05:00,
2013-02-06 04:10:00,41.2,40.4,30.05,SE,134,1.0,1.0,97,0.00,,,0.00,Wunderground v.1.15,2013-02-05 14:10:00,
2013-02-06 04:15:00,41.2,40.4,30.05,ESE,105,1.0,1.0,97,0.00,,,0.00,Wunderground v.1.15,2013-02-05 14:15:00,
2013-02-06 04:25:00,41.1,40.3,30.06,ESE,110,2.0,2.0,97,0.00,,,0.00,Wunderground v.1.15,2013-02-05 14:25:00,
2013-02-06 04:30:00,41.0,40.2,30.05,East,86,2.0,2.0,97,0.00,,,0.00,Wunderground v.1.15,2013-02-05 14:30:00,
2013-02-06 04:35:00,40.9,40.1,30.05,East,83,2.0,2.0,97,0.00,,,0.00,Wunderground v.1.15,2013-02-05 14:35:00,
2013-02-06 04:45:00,40.7,39.9,30.06,ESE,110,2.0,2.0,97,0.00,,,0.00,Wunderground v.1.15,2013-02-05 14:45:00,
2013-02-06 04:50:00,40.6,39.8,30.06,SE,127,2.0,2.0,97,0.00,,,0.00,Wunderground v.1.15,2013-02-05 14:50:00,
2013-02-06 04:55:00,40.6,39.8,30.06,East,97,1.0,2.0,97,0.00,,,0.00,Wunderground v.1.15,2013-02-05 14:55:00,
2013-02-06 05:05:00,40.4,39.6,30.07,SSE,152,1.0,2.0,97,0.00,,,0.00,Wunderground v.1.15,2013-02-05 15:05:00,
2013-02-06 05:15:00,40.4,39.6,30.07,ESE,115,1.0,1.0,97,0.00,,,0.00,Wunderground v.1.15,2013-02-05 15:15:00,
2013-02-06 05:20:00,40.4,39.6,30.07,East,91,1.0,1.0,97,0.00,,,0.00,Wunderground v.1.15,2013-02-05 15:20:00,
2013-02-06 05:30:00,40.6,39.8,30.08,East,98,1.0,1.0,97,0.00,,,0.00,Wunderground v.1.15,2013-02-05 15:30:00,
2013-02-06 05:35:00,40.8,40.0,30.07,SE,127,2.0,2.0,97,0.00,,,0.00,Wunderground v.1.15,2013-02-05 15:35:00,
2013-02-06 05:45:00,41.2,40.4,30.07,East,100,2.0,2.0,97,0.00,,,0.00,Wunderground v.1.15,2013-02-05 15:45:00,
2013-02-06 05:55:00,41.7,40.9,30.07,ESE,115,3.0,4.0,97,0.00,,,0.00,Wunderground v.1.15,2013-02-05 15:55:00,
2013-02-06 06:00:00,42.0,41.2,30.08,ESE,103,3.0,3.0,97,0.00,,,0.00,Wunderground v.1.15,2013-02-05 16:00:00,
2013-02-06 06:05:00,42.5,41.4,30.08,ENE,70,3.0,3.0,96,0.00,,,0.00,Wunderground v.1.15,2013-02-05 16:05:00,
2013-02-06 06:15:00,43.3,42.0,30.08,East,99,3.0,3.0,95,0.00,,,0.00,Wunderground v.1.15,2013-02-05 16:15:00,
2013-02-06 06:25:00,43.9,42.6,30.08,SE,136,4.0,4.0,95,0.00,,,0.00,Wunderground v.1.15,2013-02-05 16:25:00,
2013-02-06 06:35:00,44.4,42.8,30.08,NE,54,4.0,7.0,94,0.00,,,0.00,Wunderground v.1.15,2013-02-05 16:35:00,
2013-02-06 06:40:00,44.7,42.8,30.09,SE,125,4.0,4.0,93,0.00,,,0.00,Wunderground v.1.15,2013-02-05 16:40:00,
2013-02-06 06:50:00,45.3,43.1,30.10,ESE,121,3.0,3.0,92,0.00,,,0.00,Wunderground v.1.15,2013-02-05 16:50:00,
2013-02-06 07:00:00,46.0,43.5,30.09,SE,136,4.0,4.0,91,0.00,,,0.00,Wunderground v.1.15,2013-02-05 17:00:00,
2013-02-06 07:05:00,46.3,43.5,30.09,South,181,4.0,6.0,90,0.00,,,0.00,Wunderground v.1.15,2013-02-05 17:05:00,
2013-02-06 07:15:00,46.8,43.7,30.09,ESE,109,4.0,5.0,89,0.00,,,0.00,Wunderground v.1.15,2013-02-05 17:15:00,
2013-02-06 07:25:00,47.4,43.7,30.11,SSE,148,4.0,6.0,87,0.00,,,0.00,Wunderground v.1.15,2013-02-05 17:25:00,
2013-02-06 07:30:00,47.5,43.8,30.11,SSE,162,4.0,4.0,87,0.00,,,0.00,Wunderground v.1.15,2013-02-05 17:30:00,
2013-02-06 07:40:00,47.8,43.8,30.11,South,172,3.0,4.0,86,0.00,,,0.00,Wunderground v.1.15,2013-02-05 17:40:00,
2013-02-06 07:50:00,48.2,44.2,30.11,SE,146,3.0,6.0,86,0.00,,,0.00,Wunderground v.1.15,2013-02-05 17:50:00,
2013-02-06 07:55:00,48.7,44.4,30.10,SSE,153,4.0,6.0,85,0.00,,,0.00,Wunderground v.1.15,2013-02-05 17:55:00,
2013-02-06 08:05:00,48.9,44.3,30.10,ENE,78,4.0,4.0,84,0.00,,,0.00,Wunderground v.1.15,2013-02-05 18:05:00,
2013-02-06 08:15:00,49.1,44.5,30.10,East,91,4.0,6.0,84,0.00,,,0.00,Wunderground v.1.15,2013-02-05 18:15:00,
2013-02-06 08:20:00,49.2,44.3,30.10,SE,135,4.0,4.0,83,0.00,,,0.00,Wunderground v.1.15,2013-02-05 18:20:00,
2013-02-06 08:30:00,49.2,44.3,30.10,SW,216,4.0,4.0,83,0.00,,,0.00,Wunderground v.1.15,2013-02-05 18:30:00,
2013-02-06 08:40:00,49.5,44.2,30.10,SE,124,4.0,4.0,82,0.00,,,0.00,Wunderground v.1.15,2013-02-05 18:40:00,
2013-02-06 08:55:00,49.9,44.6,30.10,SE,134,4.0,4.0,82,0.00,,,0.00,Wunderground v.1.15,2013-02-05 18:55:00,
2013-02-06 09:00:00,50.1,44.8,30.10,East,91,4.0,4.0,82,0.00,,,0.00,Wunderground v.1.15,2013-02-05 19:00:00,
2013-02-06 09:10:00,50.2,44.6,30.10,SSE,165,4.0,4.0,81,0.00,,,0.00,Wunderground v.1.15,2013-02-05 19:10:00,
2013-02-06 09:15:00,50.3,44.7,30.10,SE,144,4.0,4.0,81,0.00,,,0.00,Wunderground v.1.15,2013-02-05 19:15:00,
2013-02-06 09:25:00,51.1,45.1,30.09,ESE,105,3.0,4.0,80,0.00,,,0.00,Wunderground v.1.15,2013-02-05 19:25:00,
2013-02-06 09:35:00,51.3,45.3,30.09,SSE,161,3.0,5.0,80,0.00,,,0.00,Wunderground v.1.15,2013-02-05 19:35:00,
2013-02-06 09:45:00,51.4,45.1,30.09,SE,131,4.0,4.0,79,0.00,,,0.00,Wunderground v.1.15,2013-02-05 19:45:00,
2013-02-06 09:55:00,51.1,45.1,30.08,SSW,212,5.0,6.0,80,0.00,,,0.00,Wunderground v.1.15,2013-02-05 19:55:00,
2013-02-06 10:00:00,51.2,45.2,30.08,North,353,4.0,4.0,80,0.00,,,0.00,Wunderground v.1.15,2013-02-05 20:00:00,
2013-02-06 10:10:00,51.1,45.1,30.08,SE,144,4.0,4.0,80,0.00,,,0.00,Wunderground v.1.15,2013-02-05 20:10:00,
2013-02-06 10:20:00,51.1,45.1,30.07,SSW,208,4.0,4.0,80,0.00,,,0.00,Wunderground v.1.15,2013-02-05 20:20:00,
2013-02-06 10:30:00,51.4,45.4,30.07,SE,138,5.0,9.0,80,0.00,,,0.00,Wunderground v.1.15,2013-02-05 20:30:00,
2013-02-06 10:35:00,51.3,45.0,30.07,SSW,211,6.0,9.0,79,0.00,,,0.00,Wunderground v.1.15,2013-02-05 20:35:00,
2013-02-06 10:45:00,51.4,45.4,30.07,SSW,204,4.0,6.0,80,0.00,,,0.00,Wunderground v.1.15,2013-02-05 20:45:00,
2013-02-06 10:50:00,51.4,45.4,30.06,South,183,4.0,4.0,80,0.00,,,0.00,Wunderground v.1.15,2013-02-05 20:50:00,
2013-02-06 11:00:00,51.8,45.5,30.06,SE,131,4.0,7.0,79,0.00,,,0.00,Wunderground v.1.15,2013-02-05 21:00:00,
2013-02-06 11:10:00,51.9,45.6,30.06,South,187,3.0,3.0,79,0.00,,,0.00,Wunderground v.1.15,2013-02-05 21:10:00,
2013-02-06 11:15:00,52.2,45.5,30.06,South,171,3.0,5.0,78,0.00,,,0.00,Wunderground v.1.15,2013-02-05 21:15:00,
2013-02-06 11:20:00,52.4,45.7,30.06,SSE,168,5.0,6.0,78,0.00,,,0.00,Wunderground v.1.15,2013-02-05 21:20:00,
2013-02-06 11:30:00,52.8,45.8,30.05,SSE,148,4.0,4.0,77,0.00,,,0.00,Wunderground v.1.15,2013-02-05 21:30:00,
2013-02-06 11:35:00,52.9,45.5,30.06,SW,236,4.0,5.0,76,0.00,,,0.00,Wunderground v.1.15,2013-02-05 21:35:00,
2013-02-06 11:45:00,53.6,46.2,30.05,ESE,114,4.0,6.0,76,0.00,,,0.00,Wunderground v.1.15,2013-02-05 21:45:00,
2013-02-06 11:50:00,54.3,45.8,30.05,SSE,160,5.0,5.0,73,0.00,,,0.00,Wunderground v.1.15,2013-02-05 21:50:00,
2013-02-06 11:55:00,54.2,45.4,30.05,SSE,158,5.0,5.0,72,0.00,,,0.00,Wunderground v.1.15,2013-02-05 21:55:00,
2013-02-06 12:00:00,54.6,45.4,30.05,SSE,153,5.0,8.0,71,0.00,,,0.00,Wunderground v.1.15,2013-02-05 22:00:00,
2013-02-06 12:10:00,55.1,45.1,30.05,SSE,154,4.0,8.0,69,0.00,,,0.00,Wunderground v.1.15,2013-02-05 22:10:00,
2013-02-06 12:20:00,54.8,44.4,30.05,SE,136,4.0,4.0,68,0.00,,,0.00,Wunderground v.1.15,2013-02-05 22:20:00,
2013-02-06 12:25:00,55.0,45.0,30.04,SE,131,4.0,4.0,69,0.00,,,0.00,Wunderground v.1.15,2013-02-05 22:25:00,
2013-02-06 12:35:00,54.6,45.0,30.04,SSE,158,4.0,7.0,70,0.00,,,0.00,Wunderground v.1.15,2013-02-05 22:35:00,
2013-02-06 12:40:00,54.6,44.6,30.04,SE,131,4.0,4.0,69,0.00,,,0.00,Wunderground v.1.15,2013-02-05 22:40:00,
2013-02-06 12:50:00,54.7,45.1,30.05,SE,131,3.0,5.0,70,0.00,,,0.00,Wunderground v.1.15,2013-02-05 22:50:00,
2013-02-06 12:55:00,55.0,45.4,30.04,South,177,2.0,5.0,70,0.00,,,0.00,Wunderground v.1.15,2013-02-05 22:55:00,
2013-02-06 13:05:00,54.8,45.2,30.05,SE,146,4.0,6.0,70,0.00,,,0.00,Wunderground v.1.15,2013-02-05 23:05:00,
2013-02-06 13:15:00,54.9,44.9,30.05,SE,146,5.0,5.0,69,0.00,,,0.00,Wunderground v.1.15,2013-02-05 23:15:00,
2013-02-06 13:25:00,55.1,45.1,30.05,South,170,4.0,4.0,69,0.00,,,0.00,Wunderground v.1.15,2013-02-05 23:25:00,
2013-02-06 13:35:00,55.3,45.3,30.05,SSE,153,4.0,4.0,69,0.00,,,0.00,Wunderground v.1.15,2013-02-05 23:35:00,
2013-02-06 13:40:00,55.2,45.2,30.05,South,174,3.0,3.0,69,0.00,,,0.00,Wunderground v.1.15,2013-02-05 23:40:00,
2013-02-06 13:50:00,55.7,45.7,30.05,SE,136,3.0,3.0,69,0.00,,,0.00,Wunderground v.1.15,2013-02-05 23:50:00,
2013-02-06 13:55:00,55.9,45.9,30.05,SE,145,2.0,3.0,69,0.00,,,0.00,Wunderground v.1.15,2013-02-05 23:55:00,
2013-02-06 14:10:00,56.3,45.9,30.06,SSE,153,3.0,3.0,68,0.00,,,0.00,Wunderground v.1.15,2013-02-06 00:10:00,
2013-02-06 14:20:00,55.5,45.9,30.05,SE,132,2.0,3.0,70,0.00,,,0.00,Wunderground v.1.15,2013-02-06 00:20:00,
2013-02-06 14:25:00,55.6,46.0,30.05,SSW,207,2.0,3.0,70,0.00,,,0.00,Wunderground v.1.15,2013-02-06 00:25:00,
2013-02-06 14:35:00,55.8,45.8,30.05,ESE,121,2.0,2.0,69,0.00,,,0.00,Wunderground v.1.15,2013-02-06 00:35:00,
2013-02-06 14:40:00,55.4,45.8,30.05,East,94,3.0,4.0,70,0.00,,,0.00,Wunderground v.1.15,2013-02-06 00:40:00,
2013-02-06 14:50:00,55.2,46.0,30.06,SE,138,3.0,3.0,71,0.00,,,0.00,Wunderground v.1.15,2013-02-06 00:50:00,
2013-02-06 14:55:00,55.2,46.0,30.06,ENE,78,3.0,3.0,71,0.00,,,0.00,Wunderground v.1.15,2013-02-06 00:55:00,
2013-02-06 15:05:00,55.0,46.1,30.06,ESE,109,2.0,3.0,72,0.00,,,0.00,Wunderground v.1.15,2013-02-06 01:05:00,
2013-02-06 15:15:00,54.6,46.1,30.06,SE,141,2.0,2.0,73,0.00,,,0.00,Wunderground v.1.15,2013-02-06 01:15:00,
2013-02-06 15:25:00,54.0,45.9,30.06,ESE,105,3.0,4.0,74,0.00,,,0.00,Wunderground v.1.15,2013-02-06 01:25:00,
2013-02-06 15:35:00,53.3,45.9,30.06,ESE,108,3.0,3.0,76,0.00,,,0.00,Wunderground v.1.15,2013-02-06 01:35:00,
2013-02-06 15:40:00,53.0,45.6,30.06,ESE,109,3.0,4.0,76,0.00,,,0.00,Wunderground v.1.15,2013-02-06 01:40:00,
2013-02-06 15:50:00,52.6,45.6,30.06,East,89,4.0,4.0,77,0.00,,,0.00,Wunderground v.1.15,2013-02-06 01:50:00,
2013-02-06 16:00:00,52.1,45.4,30.06,East,86,3.0,3.0,78,0.00,,,0.00,Wunderground v.1.15,2013-02-06 02:00:00,
2013-02-06 16:05:00,51.8,45.2,30.06,East,94,3.0,3.0,78,0.00,,,0.00,Wunderground v.1.15,2013-02-06 02:05:00,
2013-02-06 16:15:00,51.5,45.2,30.06,East,84,2.0,3.0,79,0.00,,,0.00,Wunderground v.1.15,2013-02-06 02:15:00,
2013-02-06 16:25:00,51.2,45.2,30.07,East,85,2.0,2.0,80,0.00,,,0.00,Wunderground v.1.15,2013-02-06 02:25:00,
2013-02-06 16:35:00,50.8,44.9,30.07,East,85,2.0,2.0,80,0.00,,,0.00,Wunderground v.1.15,2013-02-06 02:35:00,
2013-02-06 16:40:00,50.6,45.0,30.07,East,89,2.0,2.0,81,0.00,,,0.00,Wunderground v.1.15,2013-02-06 02:40:00,
2013-02-06 16:50:00,50.3,44.7,30.07,ESE,102,2.0,5.0,81,0.00,,,0.00,Wunderground v.1.15,2013-02-06 02:50:00,
2013-02-06 16:55:00,50.1,44.5,30.07,East,89,2.0,5.0,81,0.00,,,0.00,Wunderground v.1.15,2013-02-06 02:55:00,
2013-02-06 17:10:00,49.9,44.6,30.07,East,92,3.0,3.0,82,0.00,,,0.00,Wunderground v.1.15,2013-02-06 03:10:00,
2013-02-06 17:15:00,49.7,44.4,30.07,East,86,3.0,3.0,82,0.00,,,0.00,Wunderground v.1.15,2013-02-06 03:15:00,
2013-02-06 17:20:00,49.6,44.3,30.08,East,98,3.0,3.0,82,0.00,,,0.00,Wunderground v.1.15,2013-02-06 03:20:00,
2013-02-06 17:29:00,49.4,44.1,30.08,ESE,113,2.0,2.0,82,0.00,,,0.00,Wunderground v.1.15,2013-02-06 03:29:00,
2013-02-06 17:35:00,49.3,44.4,30.08,ESE,103,2.0,2.0,83,0.00,,,0.00,Wunderground v.1.15,2013-02-06 03:35:00,
2013-02-06 17:40:00,49.1,44.2,30.08,East,93,2.0,2.0,83,0.00,,,0.00,Wunderground v.1.15,2013-02-06 03:40:00,
2013-02-06 17:50:00,49.0,44.1,30.08,East,88,2.0,2.0,83,0.00,,,0.00,Wunderground v.1.15,2013-02-06 03:50:00,
2013-02-06 17:55:00,49.0,44.1,30.08,ESE,102,3.0,3.0,83,0.00,,,0.00,Wunderground v.1.15,2013-02-06 03:55:00,
2013-02-06 18:05:00,48.8,43.9,30.08,ESE,110,3.0,3.0,83,0.00,,,0.00,Wunderground v.1.15,2013-02-06 04:05:00,
2013-02-06 18:15:00,48.7,43.8,30.08,ESE,114,3.0,3.0,83,0.00,,,0.00,Wunderground v.1.15,2013-02-06 04:15:00,
2013-02-06 18:25:00,48.5,43.6,30.08,ENE,76,2.0,2.0,83,0.00,,,0.00,Wunderground v.1.15,2013-02-06 04:25:00,
2013-02-06 18:30:00,48.4,43.5,30.09,East,82,2.0,2.0,83,0.00,,,0.00,Wunderground v.1.15,2013-02-06 04:30:00,
2013-02-06 18:35:00,48.2,43.6,30.09,East,96,2.0,2.0,84,0.00,,,0.00,Wunderground v.1.15,2013-02-06 04:35:00,
2013-02-06 18:45:00,47.9,43.3,30.09,East,82,2.0,2.0,84,0.00,,,0.00,Wunderground v.1.15,2013-02-06 04:45:00,
2013-02-06 18:50:00,47.7,43.4,30.09,East,88,2.0,2.0,85,0.00,,,0.00,Wunderground v.1.15,2013-02-06 04:50:00,
2013-02-06 19:00:00,47.6,43.3,30.09,East,92,1.0,1.0,85,0.00,,,0.00,Wunderground v.1.15,2013-02-06 05:00:00,
2013-02-06 19:05:00,47.4,43.1,30.09,East,96,1.0,1.0,85,0.00,,,0.00,Wunderground v.1.15,2013-02-06 05:05:00,
2013-02-06 19:10:00,47.2,42.9,30.09,East,93,1.0,2.0,85,0.00,,,0.00,Wunderground v.1.15,2013-02-06 05:10:00,
2013-02-06 19:15:00,47.1,43.1,30.09,ESE,115,1.0,2.0,86,0.00,,,0.00,Wunderground v.1.15,2013-02-06 05:15:00,
2013-02-06 19:25:00,46.9,42.9,30.10,ESE,107,1.0,1.0,86,0.00,,,0.00,Wunderground v.1.15,2013-02-06 05:25:00,
2013-02-06 19:30:00,46.8,42.8,30.10,ESE,118,0.0,0.0,86,0.00,,,0.00,Wunderground v.1.15,2013-02-06 05:30:00,
2013-02-06 19:35:00,46.6,42.6,30.10,ESE,118,0.0,0.0,86,0.00,,,0.00,Wunderground v.1.15,2013-02-06 05:35:00,
2013-02-06 19:45:00,46.2,42.5,30.10,ESE,118,0.0,0.0,87,0.00,,,0.00,Wunderground v.1.15,2013-02-06 05:45:00,
2013-02-06 19:55:00,45.7,42.1,30.10,ESE,113,0.0,0.0,87,0.00,,,0.00,Wunderground v.1.15,2013-02-06 05:55:00,
2013-02-06 20:00:00,45.6,42.3,30.10,ESE,113,0.0,0.0,88,0.00,,,0.00,Wunderground v.1.15,2013-02-06 06:00:00,
2013-02-06 20:05:00,45.6,42.3,30.11,ESE,113,0.0,0.0,88,0.00,,,0.00,Wunderground v.1.15,2013-02-06 06:05:00,
2013-02-06 20:09:00,45.5,42.2,30.11,East,82,0.0,1.0,88,0.00,,,0.00,Wunderground v.1.15,2013-02-06 06:09:00,
2013-02-06 20:15:00,45.4,42.1,30.11,East,82,1.0,1.0,88,0.00,,,0.00,Wunderground v.1.15,2013-02-06 06:15:00,
2013-02-06 20:20:00,45.2,41.9,30.11,East,80,1.0,1.0,88,0.00,,,0.00,Wunderground v.1.15,2013-02-06 06:20:00,
2013-02-06 20:30:00,44.8,41.8,30.11,East,80,0.0,1.0,89,0.00,,,0.00,Wunderground v.1.15,2013-02-06 06:30:00,
2013-02-06 20:40:00,44.6,41.8,30.11,East,82,1.0,1.0,90,0.00,,,0.00,Wunderground v.1.15,2013-02-06 06:40:00,
2013-02-06 20:50:00,44.8,42.0,30.11,ENE,77,1.0,2.0,90,0.00,,,0.00,Wunderground v.1.15,2013-02-06 06:50:00,
2013-02-06 21:00:00,44.7,41.9,30.11,East,82,1.0,1.0,90,0.00,,,0.00,Wunderground v.1.15,2013-02-06 07:00:00,
2013-02-06 21:05:00,44.7,41.9,30.11,East,96,1.0,1.0,90,0.00,,,0.00,Wunderground v.1.15,2013-02-06 07:05:00,
2013-02-06 21:15:00,44.1,41.4,30.12,East,96,0.0,0.0,90,0.00,,,0.00,Wunderground v.1.15,2013-02-06 07:15:00,
2013-02-06 21:25:00,43.3,40.8,30.12,East,96,0.0,0.0,91,0.00,,,0.00,Wunderground v.1.15,2013-02-06 07:25:00,
2013-02-06 21:35:00,43.1,40.9,30.13,East,96,1.0,1.0,92,0.00,,,0.00,Wunderground v.1.15,2013-02-06 07:35:00,
2013-02-06 21:40:00,42.9,40.5,30.13,East,96,0.0,0.0,91,0.00,,,0.00,Wunderground v.1.15,2013-02-06 07:40:00,
2013-02-06 21:50:00,42.2,40.0,30.13,East,96,0.0,0.0,92,0.00,,,0.00,Wunderground v.1.15,2013-02-06 07:50:00,
2013-02-06 22:00:00,41.8,39.6,30.13,East,96,0.0,0.0,92,0.00,,,0.00,Wunderground v.1.15,2013-02-06 08:00:00,
2013-02-06 22:05:00,41.7,39.8,30.13,East,96,0.0,0.0,93,0.00,,,0.00,Wunderground v.1.15,2013-02-06 08:05:00,
2013-02-06 22:15:00,41.8,39.9,30.14,East,96,0.0,1.0,93,0.00,,,0.00,Wunderground v.1.15,2013-02-06 08:15:00,
2013-02-06 22:25:00,41.9,40.3,30.14,East,96,0.0,0.0,94,0.00,,,0.00,Wunderground v.1.15,2013-02-06 08:25:00,
2013-02-06 22:30:00,41.9,40.3,30.14,East,96,0.0,0.0,94,0.00,,,0.00,Wunderground v.1.15,2013-02-06 08:30:00,
2013-02-06 22:35:00,41.9,40.3,30.14,East,96,0.0,0.0,94,0.00,,,0.00,Wunderground v.1.15,2013-02-06 08:35:00,
2013-02-06 22:45:00,41.6,40.0,30.14,NE,37,0.0,1.0,94,0.00,,,0.00,Wunderground v.1.15,2013-02-06 08:45:00,
2013-02-06 22:50:00,41.6,40.0,30.15,NE,37,0.0,1.0,94,0.00,,,0.00,Wunderground v.1.15,2013-02-06 08:50:00,
2013-02-06 23:00:00,41.7,40.1,30.15,NNE,16,1.0,1.0,94,0.00,,,0.00,Wunderground v.1.15,2013-02-06 09:00:00,
2013-02-06 23:05:00,41.8,40.2,30.14,ENE,78,1.0,1.0,94,0.00,,,0.00,Wunderground v.1.15,2013-02-06 09:05:00,
2013-02-06 23:14:00,41.9,40.3,30.14,NE,47,0.0,1.0,94,0.00,,,0.00,Wunderground v.1.15,2013-02-06 09:14:00,
2013-02-06 23:20:00,41.8,40.2,30.14,NE,46,0.0,0.0,94,0.00,,,0.00,Wunderground v.1.15,2013-02-06 09:20:00,
2013-02-06 23:29:00,41.4,39.5,30.14,NE,47,0.0,0.0,93,0.00,,,0.00,Wunderground v.1.15,2013-02-06 09:29:00,
2013-02-06 23:35:00,41.1,39.5,30.14,NE,46,0.0,0.0,94,0.00,,,0.00,Wunderground v.1.15,2013-02-06 09:35:00,
2013-02-06 23:40:00,41.0,39.4,30.14,NE,46,0.0,1.0,94,0.00,,,0.00,Wunderground v.1.15,2013-02-06 09:40:00,
2013-02-06 23:49:00,40.7,39.1,30.14,NE,46,0.0,0.0,94,0.00,,,0.00,Wunderground v.1.15,2013-02-06 09:49:00,
2013-02-06 23:55:00,40.6,39.0,30.14,NE,46,0.0,0.0,94,0.00,,,0.00,Wunderground v.1.15,2013-02-06 09:55:00,